VTCC

Chiang Mai International Airport

Airport
ICAO code
VTCC
Summary
ICAO Region
APAC
ICAO Territory
Location

Chiang Mai, Thailand,

Coordinates
18° 46' 0" N , 98° 57' 45" E
KCC
Metar
VTCC 232000Z VRB02KT 8000 NSC 29/20 Q1005 NOSIG

Description

International airport serving the city of Chiang Mai in northern Thailand.

Climatology

Tropical Savanna climate (Köppen climate classification Aw) - monthly mean temperature above 18°C in every month of the year and a pronounced dry season.

Airport map

Aerial View

SKYbrary Partners:

Safety knowledge contributed by: